sensor_id;sensor_type;location;lat;lon;timestamp;P1;durP1;ratioP1;P2;durP2;ratioP2
7665;SDS011;3875;46.562;4.898;2023-03-11T00:02:09;7.23;;;3.90;;
7665;SDS011;3875;46.562;4.898;2023-03-11T00:04:35;9.93;;;3.43;;
7665;SDS011;3875;46.562;4.898;2023-03-11T00:07:04;5.60;;;3.03;;
7665;SDS011;3875;46.562;4.898;2023-03-11T00:09:30;6.03;;;3.43;;
7665;SDS011;3875;46.562;4.898;2023-03-11T00:11:56;4.17;;;2.63;;
7665;SDS011;3875;46.562;4.898;2023-03-11T00:14:22;5.83;;;3.10;;
7665;SDS011;3875;46.562;4.898;2023-03-11T00:16:47;6.73;;;3.00;;
7665;SDS011;3875;46.562;4.898;2023-03-11T00:19:13;8.37;;;3.70;;
7665;SDS011;3875;46.562;4.898;2023-03-11T00:21:38;8.10;;;3.77;;
7665;SDS011;3875;46.562;4.898;2023-03-11T00:24:04;7.67;;;4.43;;
7665;SDS011;3875;46.562;4.898;2023-03-11T00:26:30;8.43;;;4.33;;
7665;SDS011;3875;46.562;4.898;2023-03-11T00:28:56;5.60;;;4.30;;
7665;SDS011;3875;46.562;4.898;2023-03-11T00:31:21;7.60;;;4.40;;
7665;SDS011;3875;46.562;4.898;2023-03-11T00:33:47;6.23;;;3.73;;
7665;SDS011;3875;46.562;4.898;2023-03-11T00:36:46;5.40;;;3.90;;
7665;SDS011;3875;46.562;4.898;2023-03-11T00:39:04;5.60;;;4.10;;
7665;SDS011;3875;46.562;4.898;2023-03-11T00:41:31;5.20;;;4.03;;
7665;SDS011;3875;46.562;4.898;2023-03-11T00:43:57;7.23;;;4.20;;
7665;SDS011;3875;46.562;4.898;2023-03-11T00:46:23;8.53;;;4.53;;
7665;SDS011;3875;46.562;4.898;2023-03-11T00:48:49;5.47;;;3.63;;
7665;SDS011;3875;46.562;4.898;2023-03-11T00:51:15;9.37;;;4.17;;
7665;SDS011;3875;46.562;4.898;2023-03-11T00:53:41;9.77;;;5.57;;
7665;SDS011;3875;46.562;4.898;2023-03-11T00:56:07;8.60;;;6.63;;
7665;SDS011;3875;46.562;4.898;2023-03-11T00:58:38;9.80;;;7.23;;
7665;SDS011;3875;46.562;4.898;2023-03-11T01:01:08;6.57;;;4.63;;
7665;SDS011;3875;46.562;4.898;2023-03-11T01:03:38;5.37;;;3.70;;
7665;SDS011;3875;46.562;4.898;2023-03-11T01:06:04;6.80;;;4.53;;
7665;SDS011;3875;46.562;4.898;2023-03-11T01:08:31;5.47;;;4.40;;
7665;SDS011;3875;46.562;4.898;2023-03-11T01:10:58;8.77;;;4.30;;
7665;SDS011;3875;46.562;4.898;2023-03-11T01:13:25;5.37;;;3.70;;
7665;SDS011;3875;46.562;4.898;2023-03-11T01:15:52;4.63;;;3.40;;
7665;SDS011;3875;46.562;4.898;2023-03-11T01:18:18;4.80;;;3.13;;
7665;SDS011;3875;46.562;4.898;2023-03-11T01:20:44;5.10;;;2.80;;
7665;SDS011;3875;46.562;4.898;2023-03-11T01:23:11;6.10;;;3.20;;
7665;SDS011;3875;46.562;4.898;2023-03-11T01:25:38;5.67;;;3.10;;
7665;SDS011;3875;46.562;4.898;2023-03-11T01:28:03;8.23;;;4.13;;
7665;SDS011;3875;46.562;4.898;2023-03-11T01:30:32;6.13;;;3.07;;
7665;SDS011;3875;46.562;4.898;2023-03-11T01:32:59;4.10;;;3.10;;
7665;SDS011;3875;46.562;4.898;2023-03-11T01:35:26;3.93;;;3.20;;
7665;SDS011;3875;46.562;4.898;2023-03-11T01:37:53;6.30;;;3.10;;
7665;SDS011;3875;46.562;4.898;2023-03-11T01:40:25;5.23;;;3.00;;
7665;SDS011;3875;46.562;4.898;2023-03-11T01:43:04;7.00;;;3.30;;
7665;SDS011;3875;46.562;4.898;2023-03-11T01:47:57;6.00;;;3.60;;
7665;SDS011;3875;46.562;4.898;2023-03-11T01:50:23;5.77;;;3.40;;
7665;SDS011;3875;46.562;4.898;2023-03-11T01:52:51;7.63;;;3.70;;
7665;SDS011;3875;46.562;4.898;2023-03-11T01:55:17;4.43;;;2.93;;
7665;SDS011;3875;46.562;4.898;2023-03-11T01:57:43;6.63;;;3.00;;
7665;SDS011;3875;46.562;4.898;2023-03-11T02:00:12;7.17;;;2.90;;
7665;SDS011;3875;46.562;4.898;2023-03-11T02:03:01;9.67;;;2.83;;
7665;SDS011;3875;46.562;4.898;2023-03-11T02:05:27;4.80;;;2.97;;
7665;SDS011;3875;46.562;4.898;2023-03-11T02:07:53;6.07;;;2.87;;
7665;SDS011;3875;46.562;4.898;2023-03-11T02:10:19;4.63;;;2.57;;
7665;SDS011;3875;46.562;4.898;2023-03-11T02:12:45;3.63;;;2.50;;
7665;SDS011;3875;46.562;4.898;2023-03-11T02:15:13;6.03;;;2.63;;
7665;SDS011;3875;46.562;4.898;2023-03-11T02:17:40;5.83;;;2.70;;
7665;SDS011;3875;46.562;4.898;2023-03-11T02:20:13;7.07;;;3.03;;
7665;SDS011;3875;46.562;4.898;2023-03-11T02:23:00;2.90;;;2.13;;
7665;SDS011;3875;46.562;4.898;2023-03-11T02:25:33;8.17;;;3.13;;
7665;SDS011;3875;46.562;4.898;2023-03-11T02:28:04;5.47;;;2.10;;
7665;SDS011;3875;46.562;4.898;2023-03-11T02:30:34;3.47;;;2.47;;
7665;SDS011;3875;46.562;4.898;2023-03-11T02:33:00;4.00;;;2.27;;
7665;SDS011;3875;46.562;4.898;2023-03-11T02:35:27;5.90;;;2.83;;
7665;SDS011;3875;46.562;4.898;2023-03-11T02:37:52;8.20;;;2.73;;
7665;SDS011;3875;46.562;4.898;2023-03-11T02:42:47;5.80;;;2.90;;
7665;SDS011;3875;46.562;4.898;2023-03-11T02:45:27;5.93;;;2.23;;
7665;SDS011;3875;46.562;4.898;2023-03-11T02:47:56;3.23;;;2.13;;
7665;SDS011;3875;46.562;4.898;2023-03-11T02:50:23;4.07;;;2.53;;
7665;SDS011;3875;46.562;4.898;2023-03-11T02:52:51;2.43;;;2.23;;
7665;SDS011;3875;46.562;4.898;2023-03-11T02:55:17;5.07;;;2.23;;
7665;SDS011;3875;46.562;4.898;2023-03-11T02:57:45;5.23;;;2.57;;
7665;SDS011;3875;46.562;4.898;2023-03-11T03:00:12;6.67;;;2.63;;
7665;SDS011;3875;46.562;4.898;2023-03-11T03:02:40;4.57;;;2.30;;
7665;SDS011;3875;46.562;4.898;2023-03-11T03:05:07;5.87;;;2.20;;
7665;SDS011;3875;46.562;4.898;2023-03-11T03:07:34;2.50;;;1.93;;
7665;SDS011;3875;46.562;4.898;2023-03-11T03:10:00;2.30;;;2.10;;
7665;SDS011;3875;46.562;4.898;2023-03-11T03:12:26;4.97;;;2.03;;
7665;SDS011;3875;46.562;4.898;2023-03-11T03:14:52;4.47;;;2.30;;
7665;SDS011;3875;46.562;4.898;2023-03-11T03:17:18;2.57;;;1.60;;
7665;SDS011;3875;46.562;4.898;2023-03-11T03:19:43;3.37;;;1.43;;
7665;SDS011;3875;46.562;4.898;2023-03-11T03:22:09;3.90;;;1.57;;
7665;SDS011;3875;46.562;4.898;2023-03-11T03:24:35;5.03;;;1.80;;
7665;SDS011;3875;46.562;4.898;2023-03-11T03:27:00;1.70;;;1.60;;
7665;SDS011;3875;46.562;4.898;2023-03-11T03:29:26;3.93;;;1.80;;
7665;SDS011;3875;46.562;4.898;2023-03-11T03:31:51;4.43;;;1.80;;
7665;SDS011;3875;46.562;4.898;2023-03-11T03:34:17;4.47;;;1.83;;
7665;SDS011;3875;46.562;4.898;2023-03-11T03:36:43;4.47;;;1.40;;
7665;SDS011;3875;46.562;4.898;2023-03-11T03:39:08;2.63;;;1.70;;
7665;SDS011;3875;46.562;4.898;2023-03-11T03:41:34;3.03;;;1.93;;
7665;SDS011;3875;46.562;4.898;2023-03-11T03:44:00;1.83;;;1.50;;
7665;SDS011;3875;46.562;4.898;2023-03-11T03:46:26;2.90;;;1.40;;
7665;SDS011;3875;46.562;4.898;2023-03-11T03:48:52;3.80;;;1.80;;
7665;SDS011;3875;46.562;4.898;2023-03-11T03:51:18;2.20;;;1.60;;
7665;SDS011;3875;46.562;4.898;2023-03-11T03:53:43;4.57;;;1.80;;
7665;SDS011;3875;46.562;4.898;2023-03-11T03:56:13;2.07;;;1.63;;
7665;SDS011;3875;46.562;4.898;2023-03-11T03:58:40;1.67;;;1.53;;
7665;SDS011;3875;46.562;4.898;2023-03-11T04:01:06;2.30;;;1.60;;
7665;SDS011;3875;46.562;4.898;2023-03-11T04:03:33;1.97;;;1.70;;
7665;SDS011;3875;46.562;4.898;2023-03-11T04:06:06;2.70;;;2.23;;
7665;SDS011;3875;46.562;4.898;2023-03-11T04:08:33;2.53;;;1.80;;
7665;SDS011;3875;46.562;4.898;2023-03-11T04:10:59;2.00;;;1.57;;
7665;SDS011;3875;46.562;4.898;2023-03-11T04:13:25;2.33;;;1.83;;
7665;SDS011;3875;46.562;4.898;2023-03-11T04:15:50;2.30;;;1.53;;
7665;SDS011;3875;46.562;4.898;2023-03-11T04:18:16;0.60;;;0.60;;
7665;SDS011;3875;46.562;4.898;2023-03-11T04:20:42;0.90;;;0.90;;
7665;SDS011;3875;46.562;4.898;2023-03-11T04:23:08;1.20;;;1.10;;
7665;SDS011;3875;46.562;4.898;2023-03-11T04:25:33;2.13;;;0.90;;
7665;SDS011;3875;46.562;4.898;2023-03-11T04:27:59;1.80;;;0.60;;
7665;SDS011;3875;46.562;4.898;2023-03-11T04:30:25;0.70;;;0.70;;
7665;SDS011;3875;46.562;4.898;2023-03-11T04:32:50;1.90;;;0.63;;
7665;SDS011;3875;46.562;4.898;2023-03-11T04:35:16;0.47;;;0.47;;
7665;SDS011;3875;46.562;4.898;2023-03-11T04:37:42;0.50;;;0.50;;
7665;SDS011;3875;46.562;4.898;2023-03-11T04:40:07;0.50;;;0.50;;
7665;SDS011;3875;46.562;4.898;2023-03-11T04:42:35;0.40;;;0.40;;
7665;SDS011;3875;46.562;4.898;2023-03-11T04:45:00;1.40;;;0.70;;
7665;SDS011;3875;46.562;4.898;2023-03-11T04:47:26;0.70;;;0.70;;
7665;SDS011;3875;46.562;4.898;2023-03-11T04:49:52;1.53;;;0.80;;
7665;SDS011;3875;46.562;4.898;2023-03-11T04:52:20;0.60;;;0.60;;
7665;SDS011;3875;46.562;4.898;2023-03-11T04:54:45;0.63;;;0.63;;
7665;SDS011;3875;46.562;4.898;2023-03-11T04:57:11;0.80;;;0.80;;
7665;SDS011;3875;46.562;4.898;2023-03-11T04:59:37;1.63;;;1.00;;
7665;SDS011;3875;46.562;4.898;2023-03-11T05:02:02;0.80;;;0.80;;
7665;SDS011;3875;46.562;4.898;2023-03-11T05:04:28;1.87;;;1.10;;
7665;SDS011;3875;46.562;4.898;2023-03-11T05:06:54;3.23;;;0.90;;
7665;SDS011;3875;46.562;4.898;2023-03-11T05:09:20;1.93;;;1.00;;
7665;SDS011;3875;46.562;4.898;2023-03-11T05:11:45;0.90;;;0.90;;
7665;SDS011;3875;46.562;4.898;2023-03-11T05:14:11;1.17;;;0.97;;
7665;SDS011;3875;46.562;4.898;2023-03-11T05:16:36;0.60;;;0.60;;
7665;SDS011;3875;46.562;4.898;2023-03-11T05:19:02;1.20;;;1.10;;
7665;SDS011;3875;46.562;4.898;2023-03-11T05:21:48;1.63;;;1.20;;
7665;SDS011;3875;46.562;4.898;2023-03-11T05:24:13;1.70;;;0.67;;
7665;SDS011;3875;46.562;4.898;2023-03-11T05:26:39;0.77;;;0.77;;
7665;SDS011;3875;46.562;4.898;2023-03-11T05:29:05;1.13;;;1.10;;
7665;SDS011;3875;46.562;4.898;2023-03-11T05:31:31;1.40;;;1.30;;
7665;SDS011;3875;46.562;4.898;2023-03-11T05:33:57;0.90;;;0.90;;
7665;SDS011;3875;46.562;4.898;2023-03-11T05:36:22;1.30;;;1.20;;
7665;SDS011;3875;46.562;4.898;2023-03-11T05:38:48;1.47;;;1.07;;
7665;SDS011;3875;46.562;4.898;2023-03-11T05:41:14;1.40;;;1.30;;
7665;SDS011;3875;46.562;4.898;2023-03-11T05:43:39;1.40;;;1.30;;
7665;SDS011;3875;46.562;4.898;2023-03-11T05:46:05;1.50;;;1.40;;
7665;SDS011;3875;46.562;4.898;2023-03-11T05:48:30;1.60;;;1.30;;
7665;SDS011;3875;46.562;4.898;2023-03-11T05:50:56;2.20;;;1.57;;
7665;SDS011;3875;46.562;4.898;2023-03-11T05:53:23;3.10;;;2.43;;
7665;SDS011;3875;46.562;4.898;2023-03-11T05:55:59;2.60;;;2.40;;
7665;SDS011;3875;46.562;4.898;2023-03-11T05:58:26;1.50;;;1.40;;
7665;SDS011;3875;46.562;4.898;2023-03-11T06:00:52;2.20;;;2.00;;
7665;SDS011;3875;46.562;4.898;2023-03-11T06:03:18;1.87;;;1.70;;
7665;SDS011;3875;46.562;4.898;2023-03-11T06:05:44;2.50;;;2.30;;
7665;SDS011;3875;46.562;4.898;2023-03-11T06:08:10;2.80;;;2.43;;
7665;SDS011;3875;46.562;4.898;2023-03-11T06:10:36;1.87;;;1.77;;
7665;SDS011;3875;46.562;4.898;2023-03-11T06:13:02;3.23;;;2.63;;
7665;SDS011;3875;46.562;4.898;2023-03-11T06:15:27;1.73;;;1.63;;
7665;SDS011;3875;46.562;4.898;2023-03-11T06:17:53;2.50;;;2.30;;
7665;SDS011;3875;46.562;4.898;2023-03-11T06:20:19;5.00;;;2.50;;
7665;SDS011;3875;46.562;4.898;2023-03-11T06:22:47;2.80;;;2.23;;
7665;SDS011;3875;46.562;4.898;2023-03-11T06:25:13;2.10;;;1.13;;
7665;SDS011;3875;46.562;4.898;2023-03-11T06:27:39;3.10;;;1.70;;
7665;SDS011;3875;46.562;4.898;2023-03-11T06:30:04;1.40;;;1.30;;
7665;SDS011;3875;46.562;4.898;2023-03-11T06:32:31;1.63;;;1.20;;
7665;SDS011;3875;46.562;4.898;2023-03-11T06:34:58;2.07;;;1.33;;
7665;SDS011;3875;46.562;4.898;2023-03-11T06:37:24;2.20;;;1.93;;
7665;SDS011;3875;46.562;4.898;2023-03-11T06:39:52;3.37;;;2.43;;
7665;SDS011;3875;46.562;4.898;2023-03-11T06:42:18;2.00;;;1.80;;
7665;SDS011;3875;46.562;4.898;2023-03-11T06:44:48;3.70;;;1.90;;
7665;SDS011;3875;46.562;4.898;2023-03-11T06:47:14;1.77;;;1.60;;
7665;SDS011;3875;46.562;4.898;2023-03-11T06:49:40;3.00;;;2.00;;
7665;SDS011;3875;46.562;4.898;2023-03-11T06:52:06;2.10;;;1.53;;
7665;SDS011;3875;46.562;4.898;2023-03-11T06:54:33;3.20;;;2.43;;
7665;SDS011;3875;46.562;4.898;2023-03-11T06:56:59;1.57;;;1.47;;
7665;SDS011;3875;46.562;4.898;2023-03-11T06:59:25;1.40;;;1.30;;
7665;SDS011;3875;46.562;4.898;2023-03-11T07:01:52;2.23;;;1.97;;
7665;SDS011;3875;46.562;4.898;2023-03-11T07:04:18;2.10;;;1.97;;
7665;SDS011;3875;46.562;4.898;2023-03-11T07:06:44;4.87;;;3.30;;
7665;SDS011;3875;46.562;4.898;2023-03-11T07:09:09;1.50;;;1.40;;
7665;SDS011;3875;46.562;4.898;2023-03-11T07:11:35;4.50;;;2.57;;
7665;SDS011;3875;46.562;4.898;2023-03-11T07:14:01;3.03;;;1.70;;
7665;SDS011;3875;46.562;4.898;2023-03-11T07:16:27;4.83;;;2.23;;
7665;SDS011;3875;46.562;4.898;2023-03-11T07:18:55;3.73;;;1.97;;
7665;SDS011;3875;46.562;4.898;2023-03-11T07:21:23;6.43;;;3.33;;
7665;SDS011;3875;46.562;4.898;2023-03-11T07:23:51;6.60;;;4.73;;
7665;SDS011;3875;46.562;4.898;2023-03-11T07:26:18;5.10;;;3.50;;
7665;SDS011;3875;46.562;4.898;2023-03-11T07:28:44;9.30;;;4.80;;
7665;SDS011;3875;46.562;4.898;2023-03-11T07:31:11;5.50;;;4.07;;
7665;SDS011;3875;46.562;4.898;2023-03-11T07:33:38;1.60;;;1.50;;
7665;SDS011;3875;46.562;4.898;2023-03-11T07:36:08;4.23;;;3.23;;
7665;SDS011;3875;46.562;4.898;2023-03-11T07:38:35;4.60;;;3.23;;
7665;SDS011;3875;46.562;4.898;2023-03-11T07:41:01;3.20;;;2.73;;
7665;SDS011;3875;46.562;4.898;2023-03-11T07:43:27;1.90;;;1.77;;
7665;SDS011;3875;46.562;4.898;2023-03-11T07:46:06;2.30;;;2.10;;
7665;SDS011;3875;46.562;4.898;2023-03-11T07:48:37;4.13;;;3.10;;
7665;SDS011;3875;46.562;4.898;2023-03-11T07:51:14;3.77;;;3.30;;
7665;SDS011;3875;46.562;4.898;2023-03-11T07:53:42;1.27;;;1.10;;
7665;SDS011;3875;46.562;4.898;2023-03-11T07:56:08;4.83;;;3.90;;
7665;SDS011;3875;46.562;4.898;2023-03-11T07:58:35;4.97;;;2.90;;
7665;SDS011;3875;46.562;4.898;2023-03-11T08:01:02;2.77;;;2.17;;
7665;SDS011;3875;46.562;4.898;2023-03-11T08:03:30;6.07;;;3.97;;
7665;SDS011;3875;46.562;4.898;2023-03-11T08:05:57;4.90;;;3.13;;
7665;SDS011;3875;46.562;4.898;2023-03-11T08:08:23;3.97;;;3.00;;
7665;SDS011;3875;46.562;4.898;2023-03-11T08:10:49;0.97;;;0.93;;
7665;SDS011;3875;46.562;4.898;2023-03-11T08:13:15;9.80;;;4.60;;
7665;SDS011;3875;46.562;4.898;2023-03-11T08:15:41;4.40;;;2.83;;
7665;SDS011;3875;46.562;4.898;2023-03-11T08:18:07;4.20;;;3.27;;
7665;SDS011;3875;46.562;4.898;2023-03-11T08:20:32;4.10;;;3.50;;
7665;SDS011;3875;46.562;4.898;2023-03-11T08:22:58;3.23;;;1.77;;
7665;SDS011;3875;46.562;4.898;2023-03-11T08:25:24;2.80;;;1.90;;
7665;SDS011;3875;46.562;4.898;2023-03-11T08:27:49;3.57;;;2.77;;
7665;SDS011;3875;46.562;4.898;2023-03-11T08:30:15;4.53;;;3.00;;
7665;SDS011;3875;46.562;4.898;2023-03-11T08:32:41;3.80;;;3.23;;
7665;SDS011;3875;46.562;4.898;2023-03-11T08:35:06;2.80;;;2.20;;
7665;SDS011;3875;46.562;4.898;2023-03-11T08:37:33;3.50;;;1.60;;
7665;SDS011;3875;46.562;4.898;2023-03-11T08:39:59;1.87;;;1.47;;
7665;SDS011;3875;46.562;4.898;2023-03-11T08:42:24;10.73;;;1.33;;
7665;SDS011;3875;46.562;4.898;2023-03-11T08:44:50;7.70;;;3.17;;
7665;SDS011;3875;46.562;4.898;2023-03-11T08:47:16;3.70;;;2.70;;
7665;SDS011;3875;46.562;4.898;2023-03-11T08:49:41;6.40;;;4.37;;
7665;SDS011;3875;46.562;4.898;2023-03-11T08:52:07;1.50;;;1.20;;
7665;SDS011;3875;46.562;4.898;2023-03-11T08:54:33;2.77;;;2.43;;
7665;SDS011;3875;46.562;4.898;2023-03-11T08:56:58;4.40;;;3.53;;
7665;SDS011;3875;46.562;4.898;2023-03-11T08:59:27;1.30;;;1.20;;
7665;SDS011;3875;46.562;4.898;2023-03-11T09:01:55;3.50;;;2.83;;
7665;SDS011;3875;46.562;4.898;2023-03-11T09:04:21;2.10;;;1.80;;
7665;SDS011;3875;46.562;4.898;2023-03-11T09:06:47;3.80;;;2.30;;
7665;SDS011;3875;46.562;4.898;2023-03-11T09:09:15;4.67;;;2.70;;
7665;SDS011;3875;46.562;4.898;2023-03-11T09:11:44;2.33;;;2.13;;
7665;SDS011;3875;46.562;4.898;2023-03-11T09:14:10;5.93;;;4.17;;
7665;SDS011;3875;46.562;4.898;2023-03-11T09:16:36;5.77;;;4.40;;
7665;SDS011;3875;46.562;4.898;2023-03-11T09:19:02;3.97;;;2.00;;
7665;SDS011;3875;46.562;4.898;2023-03-11T09:21:31;3.00;;;2.50;;
7665;SDS011;3875;46.562;4.898;2023-03-11T09:24:00;4.50;;;3.80;;
7665;SDS011;3875;46.562;4.898;2023-03-11T09:26:26;2.33;;;2.13;;
7665;SDS011;3875;46.562;4.898;2023-03-11T09:28:51;2.73;;;1.80;;
7665;SDS011;3875;46.562;4.898;2023-03-11T09:31:17;6.77;;;3.93;;
7665;SDS011;3875;46.562;4.898;2023-03-11T09:33:43;5.17;;;3.97;;
7665;SDS011;3875;46.562;4.898;2023-03-11T09:36:11;3.33;;;2.80;;
7665;SDS011;3875;46.562;4.898;2023-03-11T09:38:42;6.33;;;4.43;;
7665;SDS011;3875;46.562;4.898;2023-03-11T09:52:39;4.93;;;3.87;;
7665;SDS011;3875;46.562;4.898;2023-03-11T09:57:52;4.73;;;3.60;;
7665;SDS011;3875;46.562;4.898;2023-03-11T10:00:19;4.97;;;3.17;;
7665;SDS011;3875;46.562;4.898;2023-03-11T10:02:48;4.13;;;3.20;;
7665;SDS011;3875;46.562;4.898;2023-03-11T10:05:26;2.17;;;1.97;;
7665;SDS011;3875;46.562;4.898;2023-03-11T10:08:04;5.20;;;3.10;;
7665;SDS011;3875;46.562;4.898;2023-03-11T10:10:46;3.50;;;2.97;;
7665;SDS011;3875;46.562;4.898;2023-03-11T10:13:25;3.40;;;2.67;;
7665;SDS011;3875;46.562;4.898;2023-03-11T10:16:12;3.60;;;2.67;;
7665;SDS011;3875;46.562;4.898;2023-03-11T10:29:15;3.63;;;2.90;;
7665;SDS011;3875;46.562;4.898;2023-03-11T10:31:43;4.83;;;2.83;;
7665;SDS011;3875;46.562;4.898;2023-03-11T10:34:23;3.43;;;2.30;;
7665;SDS011;3875;46.562;4.898;2023-03-11T10:37:13;2.50;;;2.30;;
7665;SDS011;3875;46.562;4.898;2023-03-11T10:39:40;3.37;;;2.87;;
7665;SDS011;3875;46.562;4.898;2023-03-11T10:42:11;1.93;;;1.83;;
7665;SDS011;3875;46.562;4.898;2023-03-11T10:44:41;3.90;;;3.50;;
7665;SDS011;3875;46.562;4.898;2023-03-11T10:50:02;5.97;;;3.40;;
7665;SDS011;3875;46.562;4.898;2023-03-11T10:52:28;2.73;;;2.50;;
7665;SDS011;3875;46.562;4.898;2023-03-11T10:55:01;3.43;;;3.13;;
7665;SDS011;3875;46.562;4.898;2023-03-11T10:57:36;2.37;;;2.07;;
7665;SDS011;3875;46.562;4.898;2023-03-11T11:00:06;3.30;;;3.00;;
7665;SDS011;3875;46.562;4.898;2023-03-11T11:02:48;2.80;;;2.30;;
7665;SDS011;3875;46.562;4.898;2023-03-11T11:07:41;2.87;;;2.57;;
7665;SDS011;3875;46.562;4.898;2023-03-11T11:10:24;3.93;;;2.50;;
7665;SDS011;3875;46.562;4.898;2023-03-11T11:20:30;2.40;;;2.20;;
7665;SDS011;3875;46.562;4.898;2023-03-11T11:22:57;3.00;;;2.60;;
7665;SDS011;3875;46.562;4.898;2023-03-11T11:25:32;3.43;;;2.57;;
7665;SDS011;3875;46.562;4.898;2023-03-11T11:28:07;2.87;;;2.30;;
7665;SDS011;3875;46.562;4.898;2023-03-11T11:30:51;3.60;;;2.60;;
7665;SDS011;3875;46.562;4.898;2023-03-11T11:33:26;2.50;;;2.30;;
7665;SDS011;3875;46.562;4.898;2023-03-11T11:35:58;2.57;;;2.10;;
7665;SDS011;3875;46.562;4.898;2023-03-11T11:38:26;3.60;;;2.67;;
7665;SDS011;3875;46.562;4.898;2023-03-11T11:40:54;2.37;;;2.17;;
7665;SDS011;3875;46.562;4.898;2023-03-11T11:43:31;2.23;;;2.00;;
7665;SDS011;3875;46.562;4.898;2023-03-11T11:46:30;2.60;;;2.40;;
7665;SDS011;3875;46.562;4.898;2023-03-11T11:49:23;3.03;;;2.53;;
7665;SDS011;3875;46.562;4.898;2023-03-11T11:51:55;2.93;;;2.37;;
7665;SDS011;3875;46.562;4.898;2023-03-11T11:57:17;2.73;;;2.53;;
7665;SDS011;3875;46.562;4.898;2023-03-11T11:59:44;3.53;;;3.23;;
7665;SDS011;3875;46.562;4.898;2023-03-11T12:27:11;4.00;;;2.70;;
7665;SDS011;3875;46.562;4.898;2023-03-11T12:29:56;3.33;;;2.87;;
7665;SDS011;3875;46.562;4.898;2023-03-11T12:35:17;2.37;;;2.17;;
7665;SDS011;3875;46.562;4.898;2023-03-11T12:37:54;2.93;;;2.67;;
7665;SDS011;3875;46.562;4.898;2023-03-11T12:46:02;2.47;;;2.30;;
7665;SDS011;3875;46.562;4.898;2023-03-11T12:53:51;2.67;;;2.47;;
7665;SDS011;3875;46.562;4.898;2023-03-11T12:56:39;2.50;;;2.30;;
7665;SDS011;3875;46.562;4.898;2023-03-11T13:08:15;2.50;;;2.30;;
7665;SDS011;3875;46.562;4.898;2023-03-11T13:10:44;2.95;;;2.50;;
7665;SDS011;3875;46.562;4.898;2023-03-11T13:15:52;2.33;;;2.13;;
7665;SDS011;3875;46.562;4.898;2023-03-11T13:18:27;2.33;;;2.13;;
7665;SDS011;3875;46.562;4.898;2023-03-11T13:20:57;3.33;;;2.47;;
7665;SDS011;3875;46.562;4.898;2023-03-11T13:23:25;2.90;;;2.70;;
7665;SDS011;3875;46.562;4.898;2023-03-11T13:33:53;2.40;;;2.20;;
7665;SDS011;3875;46.562;4.898;2023-03-11T13:42:00;2.57;;;2.37;;
7665;SDS011;3875;46.562;4.898;2023-03-11T13:44:29;3.07;;;2.50;;
7665;SDS011;3875;46.562;4.898;2023-03-11T13:47:08;5.10;;;3.90;;
7665;SDS011;3875;46.562;4.898;2023-03-11T13:52:23;2.97;;;2.43;;
7665;SDS011;3875;46.562;4.898;2023-03-11T13:54:58;2.23;;;2.10;;
7665;SDS011;3875;46.562;4.898;2023-03-11T13:57:49;3.30;;;2.30;;
7665;SDS011;3875;46.562;4.898;2023-03-11T14:00:20;2.23;;;2.07;;
7665;SDS011;3875;46.562;4.898;2023-03-11T14:02:50;2.37;;;2.17;;
7665;SDS011;3875;46.562;4.898;2023-03-11T14:05:42;2.50;;;2.13;;
7665;SDS011;3875;46.562;4.898;2023-03-11T14:08:26;2.30;;;2.07;;
7665;SDS011;3875;46.562;4.898;2023-03-11T14:13:26;1.93;;;1.83;;
7665;SDS011;3875;46.562;4.898;2023-03-11T14:18:35;2.03;;;1.93;;
7665;SDS011;3875;46.562;4.898;2023-03-11T14:21:02;2.07;;;1.97;;
7665;SDS011;3875;46.562;4.898;2023-03-11T14:23:34;2.10;;;1.80;;
7665;SDS011;3875;46.562;4.898;2023-03-11T14:26:05;2.20;;;2.00;;
7665;SDS011;3875;46.562;4.898;2023-03-11T14:28:34;2.10;;;2.00;;
7665;SDS011;3875;46.562;4.898;2023-03-11T14:31:02;1.93;;;1.83;;
7665;SDS011;3875;46.562;4.898;2023-03-11T14:33:29;1.97;;;1.70;;
7665;SDS011;3875;46.562;4.898;2023-03-11T14:36:00;1.90;;;1.80;;
7665;SDS011;3875;46.562;4.898;2023-03-11T14:38:29;1.43;;;1.33;;
7665;SDS011;3875;46.562;4.898;2023-03-11T14:40:59;2.93;;;1.80;;
7665;SDS011;3875;46.562;4.898;2023-03-11T14:43:34;2.23;;;2.00;;
7665;SDS011;3875;46.562;4.898;2023-03-11T14:46:03;2.17;;;1.83;;
7665;SDS011;3875;46.562;4.898;2023-03-11T14:48:37;1.60;;;1.50;;
7665;SDS011;3875;46.562;4.898;2023-03-11T14:51:07;1.57;;;1.47;;
7665;SDS011;3875;46.562;4.898;2023-03-11T14:53:43;1.90;;;1.80;;
7665;SDS011;3875;46.562;4.898;2023-03-11T14:56:13;1.93;;;1.70;;
7665;SDS011;3875;46.562;4.898;2023-03-11T14:58:43;2.20;;;1.70;;
7665;SDS011;3875;46.562;4.898;2023-03-11T15:01:15;2.20;;;2.00;;
7665;SDS011;3875;46.562;4.898;2023-03-11T15:03:51;1.53;;;1.43;;
7665;SDS011;3875;46.562;4.898;2023-03-11T15:06:18;1.87;;;1.77;;
7665;SDS011;3875;46.562;4.898;2023-03-11T15:08:57;2.13;;;1.83;;
7665;SDS011;3875;46.562;4.898;2023-03-11T15:11:26;2.10;;;2.00;;
7665;SDS011;3875;46.562;4.898;2023-03-11T15:13:52;2.53;;;1.97;;
7665;SDS011;3875;46.562;4.898;2023-03-11T15:16:34;1.80;;;1.70;;
7665;SDS011;3875;46.562;4.898;2023-03-11T15:21:47;1.70;;;1.60;;
7665;SDS011;3875;46.562;4.898;2023-03-11T15:24:18;2.00;;;1.90;;
7665;SDS011;3875;46.562;4.898;2023-03-11T15:30:14;11.13;;;4.87;;
7665;SDS011;3875;46.562;4.898;2023-03-11T15:32:45;10.90;;;4.90;;
7665;SDS011;3875;46.562;4.898;2023-03-11T15:37:41;2.80;;;2.57;;
7665;SDS011;3875;46.562;4.898;2023-03-11T15:40:28;21.90;;;10.37;;
7665;SDS011;3875;46.562;4.898;2023-03-11T15:45:38;2.30;;;2.10;;
7665;SDS011;3875;46.562;4.898;2023-03-11T15:48:04;2.27;;;2.07;;
7665;SDS011;3875;46.562;4.898;2023-03-11T15:50:30;2.27;;;2.07;;
7665;SDS011;3875;46.562;4.898;2023-03-11T15:52:56;2.20;;;2.00;;
7665;SDS011;3875;46.562;4.898;2023-03-11T15:55:23;3.53;;;2.70;;
7665;SDS011;3875;46.562;4.898;2023-03-11T15:57:51;2.37;;;2.07;;
7665;SDS011;3875;46.562;4.898;2023-03-11T16:00:29;2.00;;;1.80;;
7665;SDS011;3875;46.562;4.898;2023-03-11T16:02:55;2.60;;;2.40;;
7665;SDS011;3875;46.562;4.898;2023-03-11T16:05:22;3.53;;;2.80;;
7665;SDS011;3875;46.562;4.898;2023-03-11T16:07:49;2.20;;;1.93;;
7665;SDS011;3875;46.562;4.898;2023-03-11T16:10:16;2.23;;;1.97;;
7665;SDS011;3875;46.562;4.898;2023-03-11T16:12:43;2.40;;;2.20;;
7665;SDS011;3875;46.562;4.898;2023-03-11T16:15:23;3.83;;;2.40;;
7665;SDS011;3875;46.562;4.898;2023-03-11T16:17:54;2.93;;;2.60;;
7665;SDS011;3875;46.562;4.898;2023-03-11T16:20:21;5.37;;;3.53;;
7665;SDS011;3875;46.562;4.898;2023-03-11T16:22:48;5.47;;;3.23;;
7665;SDS011;3875;46.562;4.898;2023-03-11T16:25:18;3.90;;;3.30;;
7665;SDS011;3875;46.562;4.898;2023-03-11T16:28:02;4.30;;;2.90;;
7665;SDS011;3875;46.562;4.898;2023-03-11T16:30:29;4.47;;;2.40;;
7665;SDS011;3875;46.562;4.898;2023-03-11T16:32:56;3.10;;;2.80;;
7665;SDS011;3875;46.562;4.898;2023-03-11T16:35:22;3.23;;;2.50;;
7665;SDS011;3875;46.562;4.898;2023-03-11T16:37:48;3.73;;;3.37;;
7665;SDS011;3875;46.562;4.898;2023-03-11T16:40:24;3.30;;;3.00;;
7665;SDS011;3875;46.562;4.898;2023-03-11T16:42:54;2.57;;;2.37;;
7665;SDS011;3875;46.562;4.898;2023-03-11T16:45:24;3.83;;;3.30;;
7665;SDS011;3875;46.562;4.898;2023-03-11T16:47:50;2.40;;;2.20;;
7665;SDS011;3875;46.562;4.898;2023-03-11T16:50:15;3.67;;;2.43;;
7665;SDS011;3875;46.562;4.898;2023-03-11T16:52:41;2.47;;;2.27;;
7665;SDS011;3875;46.562;4.898;2023-03-11T16:55:07;2.50;;;2.30;;
7665;SDS011;3875;46.562;4.898;2023-03-11T16:57:32;3.07;;;2.77;;
7665;SDS011;3875;46.562;4.898;2023-03-11T16:59:58;3.47;;;2.70;;
7665;SDS011;3875;46.562;4.898;2023-03-11T17:02:24;3.17;;;2.87;;
7665;SDS011;3875;46.562;4.898;2023-03-11T17:04:50;2.87;;;2.60;;
7665;SDS011;3875;46.562;4.898;2023-03-11T17:07:15;3.00;;;2.60;;
7665;SDS011;3875;46.562;4.898;2023-03-11T17:09:41;3.43;;;2.83;;
7665;SDS011;3875;46.562;4.898;2023-03-11T17:12:07;3.33;;;2.97;;
7665;SDS011;3875;46.562;4.898;2023-03-11T17:14:34;3.40;;;3.10;;
7665;SDS011;3875;46.562;4.898;2023-03-11T17:17:00;3.70;;;3.03;;
7665;SDS011;3875;46.562;4.898;2023-03-11T17:19:25;3.57;;;2.80;;
7665;SDS011;3875;46.562;4.898;2023-03-11T17:21:51;4.70;;;4.10;;
7665;SDS011;3875;46.562;4.898;2023-03-11T17:24:17;5.33;;;3.23;;
7665;SDS011;3875;46.562;4.898;2023-03-11T17:26:42;4.17;;;2.93;;
7665;SDS011;3875;46.562;4.898;2023-03-11T17:29:08;5.27;;;3.10;;
7665;SDS011;3875;46.562;4.898;2023-03-11T17:31:34;4.40;;;2.70;;
7665;SDS011;3875;46.562;4.898;2023-03-11T17:34:00;3.23;;;2.80;;